sensor_id;sensor_type;location;lat;lon;timestamp;P1;durP1;ratioP1;P2;durP2;ratioP2
51828;SDS011;37881;48.024;8.774;2023-04-03T00:00:33;6.72;;;3.42;;
51828;SDS011;37881;48.024;8.774;2023-04-03T00:03:01;7.17;;;4.13;;
51828;SDS011;37881;48.024;8.774;2023-04-03T00:05:27;5.10;;;3.10;;
51828;SDS011;37881;48.024;8.774;2023-04-03T00:07:54;5.65;;;3.75;;
51828;SDS011;37881;48.024;8.774;2023-04-03T00:10:21;5.60;;;3.55;;
51828;SDS011;37881;48.024;8.774;2023-04-03T00:12:48;5.97;;;3.60;;
51828;SDS011;37881;48.024;8.774;2023-04-03T00:15:15;6.60;;;4.00;;
51828;SDS011;37881;48.024;8.774;2023-04-03T00:17:42;6.18;;;3.88;;
51828;SDS011;37881;48.024;8.774;2023-04-03T00:20:09;6.90;;;3.88;;
51828;SDS011;37881;48.024;8.774;2023-04-03T00:22:36;7.03;;;3.90;;
51828;SDS011;37881;48.024;8.774;2023-04-03T00:25:03;6.13;;;3.58;;
51828;SDS011;37881;48.024;8.774;2023-04-03T00:27:30;5.33;;;3.30;;
51828;SDS011;37881;48.024;8.774;2023-04-03T00:29:56;5.45;;;3.10;;
51828;SDS011;37881;48.024;8.774;2023-04-03T00:32:23;5.30;;;2.80;;
51828;SDS011;37881;48.024;8.774;2023-04-03T00:34:50;4.18;;;2.38;;
51828;SDS011;37881;48.024;8.774;2023-04-03T00:37:16;4.85;;;3.05;;
51828;SDS011;37881;48.024;8.774;2023-04-03T00:39:43;5.87;;;3.07;;
51828;SDS011;37881;48.024;8.774;2023-04-03T00:42:10;6.25;;;3.65;;
51828;SDS011;37881;48.024;8.774;2023-04-03T00:47:04;6.07;;;3.58;;
51828;SDS011;37881;48.024;8.774;2023-04-03T00:49:33;6.80;;;4.38;;
51828;SDS011;37881;48.024;8.774;2023-04-03T00:52:01;6.60;;;3.73;;
51828;SDS011;37881;48.024;8.774;2023-04-03T00:54:28;7.75;;;4.47;;
51828;SDS011;37881;48.024;8.774;2023-04-03T00:56:55;8.35;;;4.43;;
51828;SDS011;37881;48.024;8.774;2023-04-03T00:59:25;8.13;;;4.82;;
51828;SDS011;37881;48.024;8.774;2023-04-03T01:01:56;8.02;;;4.75;;
51828;SDS011;37881;48.024;8.774;2023-04-03T01:06:59;8.40;;;5.03;;
51828;SDS011;37881;48.024;8.774;2023-04-03T01:09:30;8.50;;;4.85;;
51828;SDS011;37881;48.024;8.774;2023-04-03T01:12:17;8.25;;;5.20;;
51828;SDS011;37881;48.024;8.774;2023-04-03T01:14:50;9.10;;;5.85;;
51828;SDS011;37881;48.024;8.774;2023-04-03T01:17:26;8.97;;;5.57;;
51828;SDS011;37881;48.024;8.774;2023-04-03T01:22:41;9.75;;;6.30;;
51828;SDS011;37881;48.024;8.774;2023-04-03T01:25:18;11.02;;;6.07;;
51828;SDS011;37881;48.024;8.774;2023-04-03T01:27:45;9.75;;;5.95;;
51828;SDS011;37881;48.024;8.774;2023-04-03T01:30:12;10.27;;;6.10;;
51828;SDS011;37881;48.024;8.774;2023-04-03T01:32:40;10.43;;;6.28;;
51828;SDS011;37881;48.024;8.774;2023-04-03T01:35:08;9.52;;;6.13;;
51828;SDS011;37881;48.024;8.774;2023-04-03T01:37:35;11.10;;;6.32;;
51828;SDS011;37881;48.024;8.774;2023-04-03T01:40:02;10.43;;;6.38;;
51828;SDS011;37881;48.024;8.774;2023-04-03T01:42:30;12.20;;;6.97;;
51828;SDS011;37881;48.024;8.774;2023-04-03T01:44:56;10.30;;;6.03;;
51828;SDS011;37881;48.024;8.774;2023-04-03T01:47:23;10.65;;;5.70;;
51828;SDS011;37881;48.024;8.774;2023-04-03T01:49:50;10.27;;;5.80;;
51828;SDS011;37881;48.024;8.774;2023-04-03T01:52:16;9.52;;;5.82;;
51828;SDS011;37881;48.024;8.774;2023-04-03T01:54:43;11.13;;;6.07;;
51828;SDS011;37881;48.024;8.774;2023-04-03T01:57:10;9.88;;;5.68;;
51828;SDS011;37881;48.024;8.774;2023-04-03T01:59:36;9.77;;;6.25;;
51828;SDS011;37881;48.024;8.774;2023-04-03T02:02:03;9.70;;;5.97;;
51828;SDS011;37881;48.024;8.774;2023-04-03T02:04:30;11.43;;;6.30;;
51828;SDS011;37881;48.024;8.774;2023-04-03T02:06:56;9.53;;;5.93;;
51828;SDS011;37881;48.024;8.774;2023-04-03T02:09:23;11.15;;;6.35;;
51828;SDS011;37881;48.024;8.774;2023-04-03T02:11:50;9.60;;;5.95;;
51828;SDS011;37881;48.024;8.774;2023-04-03T02:14:17;9.95;;;6.10;;
51828;SDS011;37881;48.024;8.774;2023-04-03T02:16:43;10.27;;;6.15;;
51828;SDS011;37881;48.024;8.774;2023-04-03T02:19:10;11.00;;;7.07;;
51828;SDS011;37881;48.024;8.774;2023-04-03T02:21:37;10.70;;;6.25;;
51828;SDS011;37881;48.024;8.774;2023-04-03T02:24:04;10.90;;;6.13;;
51828;SDS011;37881;48.024;8.774;2023-04-03T02:26:31;11.20;;;6.68;;
51828;SDS011;37881;48.024;8.774;2023-04-03T02:28:58;11.73;;;6.97;;
51828;SDS011;37881;48.024;8.774;2023-04-03T02:31:24;12.27;;;6.77;;
51828;SDS011;37881;48.024;8.774;2023-04-03T02:33:51;11.40;;;6.57;;
51828;SDS011;37881;48.024;8.774;2023-04-03T02:36:18;12.80;;;7.47;;
51828;SDS011;37881;48.024;8.774;2023-04-03T02:38:44;12.25;;;7.43;;
51828;SDS011;37881;48.024;8.774;2023-04-03T02:41:12;12.90;;;7.68;;
51828;SDS011;37881;48.024;8.774;2023-04-03T02:43:39;12.13;;;7.27;;
51828;SDS011;37881;48.024;8.774;2023-04-03T02:46:06;12.25;;;7.10;;
51828;SDS011;37881;48.024;8.774;2023-04-03T02:48:33;12.25;;;7.30;;
51828;SDS011;37881;48.024;8.774;2023-04-03T02:51:00;11.52;;;6.75;;
51828;SDS011;37881;48.024;8.774;2023-04-03T02:53:27;10.90;;;6.70;;
51828;SDS011;37881;48.024;8.774;2023-04-03T02:55:54;11.17;;;6.77;;
51828;SDS011;37881;48.024;8.774;2023-04-03T02:58:21;9.90;;;6.20;;
51828;SDS011;37881;48.024;8.774;2023-04-03T03:00:47;11.48;;;7.22;;
51828;SDS011;37881;48.024;8.774;2023-04-03T03:03:14;11.55;;;7.13;;
51828;SDS011;37881;48.024;8.774;2023-04-03T03:05:41;12.13;;;7.18;;
51828;SDS011;37881;48.024;8.774;2023-04-03T03:08:07;10.83;;;6.40;;
51828;SDS011;37881;48.024;8.774;2023-04-03T03:10:34;10.75;;;6.78;;
51828;SDS011;37881;48.024;8.774;2023-04-03T03:13:01;11.00;;;6.85;;
51828;SDS011;37881;48.024;8.774;2023-04-03T03:15:28;12.02;;;7.63;;
51828;SDS011;37881;48.024;8.774;2023-04-03T03:17:54;11.30;;;7.35;;
51828;SDS011;37881;48.024;8.774;2023-04-03T03:20:21;11.37;;;7.13;;
51828;SDS011;37881;48.024;8.774;2023-04-03T03:22:48;11.57;;;7.50;;
51828;SDS011;37881;48.024;8.774;2023-04-03T03:25:14;12.65;;;7.95;;
51828;SDS011;37881;48.024;8.774;2023-04-03T03:27:41;12.50;;;7.47;;
51828;SDS011;37881;48.024;8.774;2023-04-03T03:30:08;15.40;;;10.52;;
51828;SDS011;37881;48.024;8.774;2023-04-03T03:32:35;16.57;;;9.00;;
51828;SDS011;37881;48.024;8.774;2023-04-03T03:35:01;16.38;;;9.50;;
51828;SDS011;37881;48.024;8.774;2023-04-03T03:37:28;15.80;;;9.95;;
51828;SDS011;37881;48.024;8.774;2023-04-03T03:39:55;17.65;;;10.10;;
51828;SDS011;37881;48.024;8.774;2023-04-03T03:42:22;17.13;;;10.63;;
51828;SDS011;37881;48.024;8.774;2023-04-03T03:44:49;17.60;;;11.00;;
51828;SDS011;37881;48.024;8.774;2023-04-03T03:47:15;20.35;;;11.48;;
51828;SDS011;37881;48.024;8.774;2023-04-03T03:49:42;18.30;;;10.48;;
51828;SDS011;37881;48.024;8.774;2023-04-03T03:52:09;18.83;;;10.35;;
51828;SDS011;37881;48.024;8.774;2023-04-03T03:54:37;17.55;;;10.10;;
51828;SDS011;37881;48.024;8.774;2023-04-03T03:57:04;17.13;;;10.27;;
51828;SDS011;37881;48.024;8.774;2023-04-03T03:59:31;18.00;;;9.82;;
51828;SDS011;37881;48.024;8.774;2023-04-03T04:01:58;15.95;;;9.02;;
51828;SDS011;37881;48.024;8.774;2023-04-03T04:04:24;14.02;;;7.60;;
51828;SDS011;37881;48.024;8.774;2023-04-03T04:06:51;14.35;;;8.63;;
51828;SDS011;37881;48.024;8.774;2023-04-03T04:09:18;15.33;;;8.47;;
51828;SDS011;37881;48.024;8.774;2023-04-03T04:11:44;13.93;;;7.70;;
51828;SDS011;37881;48.024;8.774;2023-04-03T04:14:11;15.80;;;8.75;;
51828;SDS011;37881;48.024;8.774;2023-04-03T04:16:39;13.90;;;7.90;;
51828;SDS011;37881;48.024;8.774;2023-04-03T04:19:06;15.10;;;8.57;;
51828;SDS011;37881;48.024;8.774;2023-04-03T04:21:34;13.20;;;7.67;;
51828;SDS011;37881;48.024;8.774;2023-04-03T04:24:01;13.88;;;7.88;;
51828;SDS011;37881;48.024;8.774;2023-04-03T04:26:28;16.73;;;11.18;;
51828;SDS011;37881;48.024;8.774;2023-04-03T04:28:54;15.98;;;11.02;;
51828;SDS011;37881;48.024;8.774;2023-04-03T04:31:21;15.70;;;10.05;;
51828;SDS011;37881;48.024;8.774;2023-04-03T04:33:48;14.17;;;7.93;;
51828;SDS011;37881;48.024;8.774;2023-04-03T04:36:15;14.45;;;7.35;;
51828;SDS011;37881;48.024;8.774;2023-04-03T04:38:42;14.43;;;8.13;;
51828;SDS011;37881;48.024;8.774;2023-04-03T04:41:08;13.75;;;7.50;;
51828;SDS011;37881;48.024;8.774;2023-04-03T04:43:35;14.98;;;8.60;;
51828;SDS011;37881;48.024;8.774;2023-04-03T04:46:11;17.23;;;8.93;;
51828;SDS011;37881;48.024;8.774;2023-04-03T04:48:38;14.52;;;8.20;;
51828;SDS011;37881;48.024;8.774;2023-04-03T04:51:05;14.05;;;7.85;;
51828;SDS011;37881;48.024;8.774;2023-04-03T04:53:31;15.13;;;8.75;;
51828;SDS011;37881;48.024;8.774;2023-04-03T04:55:58;14.55;;;8.18;;
51828;SDS011;37881;48.024;8.774;2023-04-03T04:58:25;14.40;;;8.03;;
51828;SDS011;37881;48.024;8.774;2023-04-03T05:01:01;12.98;;;7.03;;
51828;SDS011;37881;48.024;8.774;2023-04-03T05:03:29;13.82;;;8.38;;
51828;SDS011;37881;48.024;8.774;2023-04-03T05:05:56;14.23;;;8.30;;
51828;SDS011;37881;48.024;8.774;2023-04-03T05:08:23;12.68;;;8.15;;
51828;SDS011;37881;48.024;8.774;2023-04-03T05:10:50;13.03;;;7.23;;
51828;SDS011;37881;48.024;8.774;2023-04-03T05:13:20;11.68;;;7.13;;
51828;SDS011;37881;48.024;8.774;2023-04-03T05:15:47;13.18;;;8.20;;
51828;SDS011;37881;48.024;8.774;2023-04-03T05:18:14;14.15;;;7.70;;
51828;SDS011;37881;48.024;8.774;2023-04-03T05:20:41;13.63;;;8.75;;
51828;SDS011;37881;48.024;8.774;2023-04-03T05:23:10;13.17;;;7.20;;
51828;SDS011;37881;48.024;8.774;2023-04-03T05:25:38;13.20;;;6.97;;
51828;SDS011;37881;48.024;8.774;2023-04-03T05:33:44;11.02;;;7.00;;
51828;SDS011;37881;48.024;8.774;2023-04-03T05:36:12;9.30;;;6.20;;
51828;SDS011;37881;48.024;8.774;2023-04-03T05:38:39;11.10;;;7.22;;
51828;SDS011;37881;48.024;8.774;2023-04-03T05:41:06;8.77;;;5.53;;
51828;SDS011;37881;48.024;8.774;2023-04-03T05:43:33;9.07;;;5.82;;
51828;SDS011;37881;48.024;8.774;2023-04-03T05:46:01;10.55;;;7.35;;
51828;SDS011;37881;48.024;8.774;2023-04-03T05:48:28;12.20;;;7.30;;
51828;SDS011;37881;48.024;8.774;2023-04-03T05:50:54;12.00;;;6.28;;
51828;SDS011;37881;48.024;8.774;2023-04-03T05:53:23;10.57;;;6.32;;
51828;SDS011;37881;48.024;8.774;2023-04-03T05:55:55;9.05;;;5.88;;
51828;SDS011;37881;48.024;8.774;2023-04-03T05:58:22;10.65;;;6.40;;
51828;SDS011;37881;48.024;8.774;2023-04-03T06:00:49;9.80;;;6.00;;
51828;SDS011;37881;48.024;8.774;2023-04-03T06:03:15;12.82;;;6.35;;
51828;SDS011;37881;48.024;8.774;2023-04-03T06:05:43;9.68;;;5.80;;
51828;SDS011;37881;48.024;8.774;2023-04-03T06:08:09;9.70;;;5.90;;
51828;SDS011;37881;48.024;8.774;2023-04-03T06:10:36;10.32;;;5.88;;
51828;SDS011;37881;48.024;8.774;2023-04-03T06:13:03;10.83;;;6.57;;
51828;SDS011;37881;48.024;8.774;2023-04-03T06:15:31;10.60;;;5.95;;
51828;SDS011;37881;48.024;8.774;2023-04-03T06:17:58;9.52;;;5.78;;
51828;SDS011;37881;48.024;8.774;2023-04-03T06:20:24;10.20;;;6.07;;
51828;SDS011;37881;48.024;8.774;2023-04-03T06:22:51;11.23;;;6.47;;
51828;SDS011;37881;48.024;8.774;2023-04-03T06:25:18;10.77;;;6.40;;
51828;SDS011;37881;48.024;8.774;2023-04-03T06:27:45;9.95;;;5.93;;
51828;SDS011;37881;48.024;8.774;2023-04-03T06:30:13;12.30;;;6.88;;
51828;SDS011;37881;48.024;8.774;2023-04-03T06:32:40;10.75;;;6.85;;
51828;SDS011;37881;48.024;8.774;2023-04-03T06:35:07;11.52;;;6.60;;
51828;SDS011;37881;48.024;8.774;2023-04-03T06:37:34;10.83;;;6.70;;
51828;SDS011;37881;48.024;8.774;2023-04-03T06:40:01;11.32;;;7.20;;
51828;SDS011;37881;48.024;8.774;2023-04-03T06:42:29;10.90;;;6.53;;
51828;SDS011;37881;48.024;8.774;2023-04-03T06:44:57;10.75;;;6.63;;
51828;SDS011;37881;48.024;8.774;2023-04-03T06:47:24;11.25;;;6.50;;
51828;SDS011;37881;48.024;8.774;2023-04-03T06:49:50;10.80;;;6.53;;
51828;SDS011;37881;48.024;8.774;2023-04-03T06:52:17;9.80;;;6.88;;
51828;SDS011;37881;48.024;8.774;2023-04-03T06:54:44;11.07;;;6.28;;
51828;SDS011;37881;48.024;8.774;2023-04-03T06:57:11;11.23;;;6.32;;
51828;SDS011;37881;48.024;8.774;2023-04-03T06:59:37;10.52;;;6.18;;
51828;SDS011;37881;48.024;8.774;2023-04-03T07:02:04;9.27;;;5.87;;
51828;SDS011;37881;48.024;8.774;2023-04-03T07:04:31;8.82;;;5.70;;
51828;SDS011;37881;48.024;8.774;2023-04-03T07:06:57;9.35;;;5.60;;
51828;SDS011;37881;48.024;8.774;2023-04-03T07:09:24;10.20;;;5.75;;
51828;SDS011;37881;48.024;8.774;2023-04-03T07:11:51;11.25;;;6.10;;
51828;SDS011;37881;48.024;8.774;2023-04-03T07:14:18;10.80;;;5.63;;
51828;SDS011;37881;48.024;8.774;2023-04-03T07:16:45;9.73;;;5.40;;
51828;SDS011;37881;48.024;8.774;2023-04-03T07:19:11;8.00;;;5.18;;
51828;SDS011;37881;48.024;8.774;2023-04-03T07:21:38;8.10;;;4.78;;
51828;SDS011;37881;48.024;8.774;2023-04-03T07:24:05;9.80;;;5.60;;
51828;SDS011;37881;48.024;8.774;2023-04-03T07:26:34;8.47;;;4.93;;
51828;SDS011;37881;48.024;8.774;2023-04-03T07:29:01;7.78;;;4.70;;
51828;SDS011;37881;48.024;8.774;2023-04-03T07:31:29;9.85;;;5.70;;
51828;SDS011;37881;48.024;8.774;2023-04-03T07:33:55;6.70;;;4.60;;
51828;SDS011;37881;48.024;8.774;2023-04-03T07:36:22;8.18;;;4.78;;
51828;SDS011;37881;48.024;8.774;2023-04-03T07:38:49;6.77;;;4.43;;
51828;SDS011;37881;48.024;8.774;2023-04-03T07:41:17;6.60;;;3.75;;
51828;SDS011;37881;48.024;8.774;2023-04-03T07:43:46;7.07;;;4.75;;
51828;SDS011;37881;48.024;8.774;2023-04-03T07:46:13;7.25;;;4.20;;
51828;SDS011;37881;48.024;8.774;2023-04-03T07:48:40;6.60;;;4.65;;
51828;SDS011;37881;48.024;8.774;2023-04-03T07:51:07;7.63;;;5.00;;
51828;SDS011;37881;48.024;8.774;2023-04-03T07:53:33;7.10;;;5.18;;
51828;SDS011;37881;48.024;8.774;2023-04-03T07:56:00;7.25;;;4.50;;
51828;SDS011;37881;48.024;8.774;2023-04-03T07:58:29;8.30;;;5.00;;
51828;SDS011;37881;48.024;8.774;2023-04-03T08:00:56;7.00;;;4.63;;
51828;SDS011;37881;48.024;8.774;2023-04-03T08:03:23;6.53;;;4.10;;
51828;SDS011;37881;48.024;8.774;2023-04-03T08:05:50;8.07;;;4.40;;
51828;SDS011;37881;48.024;8.774;2023-04-03T08:08:19;7.20;;;4.32;;
51828;SDS011;37881;48.024;8.774;2023-04-03T08:10:49;6.72;;;4.30;;
51828;SDS011;37881;48.024;8.774;2023-04-03T08:13:20;7.88;;;4.22;;
51828;SDS011;37881;48.024;8.774;2023-04-03T08:15:47;7.07;;;4.27;;
51828;SDS011;37881;48.024;8.774;2023-04-03T08:18:14;6.82;;;4.50;;
51828;SDS011;37881;48.024;8.774;2023-04-03T08:20:41;8.45;;;4.53;;
51828;SDS011;37881;48.024;8.774;2023-04-03T08:23:08;7.53;;;4.75;;
51828;SDS011;37881;48.024;8.774;2023-04-03T08:25:39;7.40;;;4.40;;
51828;SDS011;37881;48.024;8.774;2023-04-03T08:28:07;7.53;;;4.20;;
51828;SDS011;37881;48.024;8.774;2023-04-03T08:30:34;7.30;;;4.82;;
51828;SDS011;37881;48.024;8.774;2023-04-03T08:33:01;7.32;;;3.85;;
51828;SDS011;37881;48.024;8.774;2023-04-03T08:35:28;7.28;;;4.07;;
51828;SDS011;37881;48.024;8.774;2023-04-03T08:37:55;6.07;;;4.25;;
51828;SDS011;37881;48.024;8.774;2023-04-03T08:40:23;7.90;;;4.97;;
51828;SDS011;37881;48.024;8.774;2023-04-03T08:42:53;7.25;;;4.60;;
51828;SDS011;37881;48.024;8.774;2023-04-03T08:48:18;10.60;;;4.80;;
51828;SDS011;37881;48.024;8.774;2023-04-03T08:50:54;7.97;;;4.90;;
51828;SDS011;37881;48.024;8.774;2023-04-03T08:53:29;6.70;;;4.40;;
51828;SDS011;37881;48.024;8.774;2023-04-03T08:56:05;6.15;;;4.13;;
51828;SDS011;37881;48.024;8.774;2023-04-03T08:58:42;8.60;;;5.30;;
51828;SDS011;37881;48.024;8.774;2023-04-03T09:03:53;8.88;;;5.18;;
51828;SDS011;37881;48.024;8.774;2023-04-03T09:06:21;7.70;;;4.87;;
51828;SDS011;37881;48.024;8.774;2023-04-03T09:22:46;7.20;;;4.25;;
51828;SDS011;37881;48.024;8.774;2023-04-03T09:25:20;9.13;;;5.60;;
51828;SDS011;37881;48.024;8.774;2023-04-03T09:27:49;11.02;;;5.90;;
51828;SDS011;37881;48.024;8.774;2023-04-03T09:30:19;7.68;;;5.13;;
51828;SDS011;37881;48.024;8.774;2023-04-03T09:32:59;7.43;;;5.00;;
51828;SDS011;37881;48.024;8.774;2023-04-03T09:35:30;8.48;;;4.95;;
51828;SDS011;37881;48.024;8.774;2023-04-03T09:43:28;8.40;;;5.40;;
51828;SDS011;37881;48.024;8.774;2023-04-03T09:46:16;8.53;;;5.17;;
51828;SDS011;37881;48.024;8.774;2023-04-03T09:49:03;7.55;;;5.00;;
51828;SDS011;37881;48.024;8.774;2023-04-03T09:51:35;7.50;;;4.80;;
51828;SDS011;37881;48.024;8.774;2023-04-03T09:54:24;7.60;;;4.90;;
51828;SDS011;37881;48.024;8.774;2023-04-03T09:57:01;9.60;;;6.20;;
51828;SDS011;37881;48.024;8.774;2023-04-03T09:59:33;8.47;;;5.03;;
51828;SDS011;37881;48.024;8.774;2023-04-03T10:02:14;7.90;;;5.15;;
51828;SDS011;37881;48.024;8.774;2023-04-03T10:04:48;7.13;;;4.82;;
51828;SDS011;37881;48.024;8.774;2023-04-03T10:07:34;7.07;;;4.70;;
51828;SDS011;37881;48.024;8.774;2023-04-03T10:10:24;7.97;;;5.18;;
51828;SDS011;37881;48.024;8.774;2023-04-03T10:15:39;9.02;;;5.30;;
51828;SDS011;37881;48.024;8.774;2023-04-03T10:18:53;8.43;;;5.40;;
51828;SDS011;37881;48.024;8.774;2023-04-03T10:24:14;8.80;;;5.72;;
51828;SDS011;37881;48.024;8.774;2023-04-03T10:35:27;7.65;;;5.03;;
51828;SDS011;37881;48.024;8.774;2023-04-03T10:38:01;8.35;;;5.60;;
51828;SDS011;37881;48.024;8.774;2023-04-03T10:43:42;8.45;;;5.25;;
51828;SDS011;37881;48.024;8.774;2023-04-03T10:46:29;8.15;;;5.45;;
51828;SDS011;37881;48.024;8.774;2023-04-03T10:57:39;8.77;;;6.35;;
51828;SDS011;37881;48.024;8.774;2023-04-03T11:00:14;8.63;;;6.10;;
51828;SDS011;37881;48.024;8.774;2023-04-03T11:10:59;8.75;;;5.50;;
51828;SDS011;37881;48.024;8.774;2023-04-03T11:13:34;7.00;;;5.18;;
51828;SDS011;37881;48.024;8.774;2023-04-03T11:16:07;7.40;;;5.55;;
51828;SDS011;37881;48.024;8.774;2023-04-03T11:18:48;6.82;;;4.97;;
51828;SDS011;37881;48.024;8.774;2023-04-03T11:24:16;7.85;;;4.70;;
51828;SDS011;37881;48.024;8.774;2023-04-03T11:26:48;7.13;;;5.03;;
51828;SDS011;37881;48.024;8.774;2023-04-03T11:29:19;7.80;;;5.00;;
51828;SDS011;37881;48.024;8.774;2023-04-03T11:34:49;6.50;;;4.30;;
51828;SDS011;37881;48.024;8.774;2023-04-03T11:37:23;7.18;;;5.28;;
51828;SDS011;37881;48.024;8.774;2023-04-03T11:39:58;7.53;;;5.20;;
51828;SDS011;37881;48.024;8.774;2023-04-03T11:45:25;6.00;;;4.20;;
51828;SDS011;37881;48.024;8.774;2023-04-03T11:48:05;8.33;;;4.90;;
51828;SDS011;37881;48.024;8.774;2023-04-03T11:50:53;7.60;;;5.65;;
51828;SDS011;37881;48.024;8.774;2023-04-03T11:53:25;7.00;;;4.68;;
51828;SDS011;37881;48.024;8.774;2023-04-03T11:55:56;7.88;;;4.68;;
51828;SDS011;37881;48.024;8.774;2023-04-03T11:58:25;6.65;;;4.93;;
51828;SDS011;37881;48.024;8.774;2023-04-03T12:00:54;8.20;;;4.80;;
51828;SDS011;37881;48.024;8.774;2023-04-03T12:13:35;6.87;;;4.93;;
51828;SDS011;37881;48.024;8.774;2023-04-03T12:16:02;7.90;;;4.78;;
51828;SDS011;37881;48.024;8.774;2023-04-03T12:18:41;7.90;;;4.80;;
51828;SDS011;37881;48.024;8.774;2023-04-03T12:22:05;6.88;;;4.10;;
51828;SDS011;37881;48.024;8.774;2023-04-03T12:26:46;6.13;;;4.40;;
51828;SDS011;37881;48.024;8.774;2023-04-03T12:29:21;5.55;;;3.92;;
51828;SDS011;37881;48.024;8.774;2023-04-03T12:34:38;7.93;;;5.15;;
51828;SDS011;37881;48.024;8.774;2023-04-03T12:37:44;7.13;;;4.80;;
51828;SDS011;37881;48.024;8.774;2023-04-03T12:48:31;10.05;;;5.57;;
51828;SDS011;37881;48.024;8.774;2023-04-03T12:51:00;8.27;;;5.35;;
51828;SDS011;37881;48.024;8.774;2023-04-03T12:53:31;6.63;;;4.80;;
51828;SDS011;37881;48.024;8.774;2023-04-03T12:58:54;8.43;;;4.80;;
51828;SDS011;37881;48.024;8.774;2023-04-03T13:01:38;8.23;;;5.00;;
51828;SDS011;37881;48.024;8.774;2023-04-03T13:04:05;10.23;;;4.80;;
51828;SDS011;37881;48.024;8.774;2023-04-03T13:06:38;8.27;;;4.80;;
51828;SDS011;37881;48.024;8.774;2023-04-03T13:09:17;6.63;;;4.70;;
51828;SDS011;37881;48.024;8.774;2023-04-03T13:11:48;6.55;;;4.80;;
51828;SDS011;37881;48.024;8.774;2023-04-03T13:14:21;7.40;;;4.60;;
51828;SDS011;37881;48.024;8.774;2023-04-03T13:19:47;6.27;;;4.27;;
51828;SDS011;37881;48.024;8.774;2023-04-03T13:24:57;7.05;;;4.10;;
51828;SDS011;37881;48.024;8.774;2023-04-03T13:27:29;6.10;;;4.20;;
51828;SDS011;37881;48.024;8.774;2023-04-03T13:29:58;6.65;;;5.28;;
51828;SDS011;37881;48.024;8.774;2023-04-03T13:32:28;8.17;;;4.60;;
51828;SDS011;37881;48.024;8.774;2023-04-03T13:34:57;6.32;;;4.65;;
51828;SDS011;37881;48.024;8.774;2023-04-03T13:37:37;7.90;;;4.75;;
51828;SDS011;37881;48.024;8.774;2023-04-03T13:42:34;7.68;;;4.70;;
51828;SDS011;37881;48.024;8.774;2023-04-03T13:45:25;10.37;;;5.57;;
51828;SDS011;37881;48.024;8.774;2023-04-03T13:48:11;8.32;;;5.65;;
51828;SDS011;37881;48.024;8.774;2023-04-03T13:50:59;8.05;;;4.80;;
51828;SDS011;37881;48.024;8.774;2023-04-03T13:53:31;5.85;;;4.40;;
51828;SDS011;37881;48.024;8.774;2023-04-03T13:58:30;8.37;;;5.20;;
51828;SDS011;37881;48.024;8.774;2023-04-03T14:01:14;10.07;;;5.65;;
51828;SDS011;37881;48.024;8.774;2023-04-03T14:03:51;9.23;;;5.70;;
51828;SDS011;37881;48.024;8.774;2023-04-03T14:06:36;8.57;;;4.70;;
51828;SDS011;37881;48.024;8.774;2023-04-03T14:09:03;8.30;;;5.70;;
51828;SDS011;37881;48.024;8.774;2023-04-03T14:11:30;8.07;;;5.00;;
51828;SDS011;37881;48.024;8.774;2023-04-03T14:14:00;8.98;;;5.80;;
51828;SDS011;37881;48.024;8.774;2023-04-03T14:16:32;8.80;;;5.60;;
51828;SDS011;37881;48.024;8.774;2023-04-03T14:19:03;7.70;;;5.45;;
51828;SDS011;37881;48.024;8.774;2023-04-03T14:21:30;8.45;;;5.38;;
51828;SDS011;37881;48.024;8.774;2023-04-03T14:23:56;8.13;;;5.70;;
51828;SDS011;37881;48.024;8.774;2023-04-03T14:26:23;10.93;;;5.80;;
51828;SDS011;37881;48.024;8.774;2023-04-03T14:28:53;7.93;;;5.22;;
51828;SDS011;37881;48.024;8.774;2023-04-03T14:31:21;7.63;;;5.15;;
51828;SDS011;37881;48.024;8.774;2023-04-03T14:33:49;14.35;;;7.97;;
51828;SDS011;37881;48.024;8.774;2023-04-03T14:36:25;7.63;;;5.10;;
51828;SDS011;37881;48.024;8.774;2023-04-03T14:38:54;6.60;;;4.57;;
51828;SDS011;37881;48.024;8.774;2023-04-03T14:41:23;7.28;;;4.50;;
51828;SDS011;37881;48.024;8.774;2023-04-03T14:43:51;7.10;;;5.22;;
51828;SDS011;37881;48.024;8.774;2023-04-03T14:49:26;8.00;;;4.83;;
51828;SDS011;37881;48.024;8.774;2023-04-03T14:51:56;9.73;;;4.95;;
51828;SDS011;37881;48.024;8.774;2023-04-03T14:54:23;7.13;;;4.95;;
51828;SDS011;37881;48.024;8.774;2023-04-03T14:56:55;9.73;;;5.10;;
51828;SDS011;37881;48.024;8.774;2023-04-03T14:59:24;10.68;;;5.75;;
51828;SDS011;37881;48.024;8.774;2023-04-03T15:01:58;7.23;;;4.90;;
51828;SDS011;37881;48.024;8.774;2023-04-03T15:04:25;7.97;;;4.63;;
51828;SDS011;37881;48.024;8.774;2023-04-03T15:06:52;6.93;;;4.90;;
51828;SDS011;37881;48.024;8.774;2023-04-03T15:09:26;7.43;;;5.13;;
51828;SDS011;37881;48.024;8.774;2023-04-03T15:11:54;7.72;;;5.85;;
51828;SDS011;37881;48.024;8.774;2023-04-03T15:14:21;8.93;;;5.97;;
51828;SDS011;37881;48.024;8.774;2023-04-03T15:17:05;13.00;;;8.13;;
51828;SDS011;37881;48.024;8.774;2023-04-03T15:19:35;9.40;;;6.43;;
51828;SDS011;37881;48.024;8.774;2023-04-03T15:22:04;7.40;;;5.10;;
51828;SDS011;37881;48.024;8.774;2023-04-03T15:24:31;10.20;;;6.13;;
51828;SDS011;37881;48.024;8.774;2023-04-03T15:26:57;9.37;;;6.07;;
51828;SDS011;37881;48.024;8.774;2023-04-03T15:29:26;9.55;;;6.05;;
51828;SDS011;37881;48.024;8.774;2023-04-03T15:31:53;8.85;;;5.70;;
51828;SDS011;37881;48.024;8.774;2023-04-03T15:34:20;9.25;;;6.50;;
51828;SDS011;37881;48.024;8.774;2023-04-03T15:36:49;9.57;;;6.97;;
51828;SDS011;37881;48.024;8.774;2023-04-03T15:39:19;8.33;;;5.20;;
51828;SDS011;37881;48.024;8.774;2023-04-03T15:41:46;10.05;;;6.32;;
51828;SDS011;37881;48.024;8.774;2023-04-03T15:44:14;7.60;;;5.32;;
51828;SDS011;37881;48.024;8.774;2023-04-03T15:46:44;8.00;;;4.90;;
51828;SDS011;37881;48.024;8.774;2023-04-03T15:49:12;6.90;;;4.70;;
51828;SDS011;37881;48.024;8.774;2023-04-03T15:51:39;7.77;;;5.07;;
51828;SDS011;37881;48.024;8.774;2023-04-03T15:54:06;7.50;;;4.90;;
51828;SDS011;37881;48.024;8.774;2023-04-03T15:56:33;8.95;;;5.45;;
51828;SDS011;37881;48.024;8.774;2023-04-03T15:58:59;7.57;;;4.70;;
51828;SDS011;37881;48.024;8.774;2023-04-03T16:01:26;8.35;;;4.82;;
51828;SDS011;37881;48.024;8.774;2023-04-03T16:03:53;8.07;;;5.17;;
51828;SDS011;37881;48.024;8.774;2023-04-03T16:06:20;6.90;;;5.20;;
51828;SDS011;37881;48.024;8.774;2023-04-03T16:08:47;8.07;;;4.97;;
51828;SDS011;37881;48.024;8.774;2023-04-03T16:11:15;8.23;;;5.07;;
51828;SDS011;37881;48.024;8.774;2023-04-03T16:13:42;7.65;;;5.03;;
51828;SDS011;37881;48.024;8.774;2023-04-03T16:16:09;7.97;;;4.83;;
51828;SDS011;37881;48.024;8.774;2023-04-03T16:18:36;8.68;;;5.32;;
51828;SDS011;37881;48.024;8.774;2023-04-03T16:21:03;7.90;;;5.22;;
51828;SDS011;37881;48.024;8.774;2023-04-03T16:23:30;6.90;;;4.28;;
51828;SDS011;37881;48.024;8.774;2023-04-03T16:25:56;6.63;;;4.32;;
51828;SDS011;37881;48.024;8.774;2023-04-03T16:28:23;7.77;;;4.80;;
51828;SDS011;37881;48.024;8.774;2023-04-03T16:30:50;6.93;;;4.40;;
51828;SDS011;37881;48.024;8.774;2023-04-03T16:33:17;6.53;;;4.38;;
51828;SDS011;37881;48.024;8.774;2023-04-03T16:35:48;6.60;;;4.32;;
51828;SDS011;37881;48.024;8.774;2023-04-03T16:38:16;7.75;;;4.38;;
51828;SDS011;37881;48.024;8.774;2023-04-03T16:40:42;7.73;;;4.80;;
51828;SDS011;37881;48.024;8.774;2023-04-03T16:43:09;7.47;;;4.63;;
51828;SDS011;37881;48.024;8.774;2023-04-03T16:45:37;16.20;;;7.65;;
51828;SDS011;37881;48.024;8.774;2023-04-03T16:48:04;17.00;;;5.93;;
51828;SDS011;37881;48.024;8.774;2023-04-03T16:50:31;11.48;;;6.80;;
51828;SDS011;37881;48.024;8.774;2023-04-03T16:52:58;7.37;;;4.57;;
51828;SDS011;37881;48.024;8.774;2023-04-03T16:55:25;7.70;;;4.55;;
51828;SDS011;37881;48.024;8.774;2023-04-03T16:57:52;8.75;;;5.40;;